createdAt,value
2022-09-26T00:00:17.733Z,0.00
2022-09-26T00:01:17.769Z,0.00
2022-09-26T00:02:17.806Z,0.00
2022-09-26T00:03:17.698Z,0.00
2022-09-26T00:04:21.040Z,0.00
2022-09-26T00:05:18.676Z,0.00
2022-09-26T00:06:17.691Z,0.00
2022-09-26T00:07:17.652Z,0.00
2022-09-26T00:08:17.649Z,0.00
2022-09-26T00:09:17.637Z,0.00
2022-09-26T00:10:17.625Z,0.00
2022-09-26T00:11:17.638Z,0.00
2022-09-26T00:12:17.614Z,0.00
2022-09-26T00:13:17.594Z,0.00
2022-09-26T00:14:17.604Z,0.00
2022-09-26T00:15:17.590Z,0.00
2022-09-26T00:16:17.609Z,0.00
2022-09-26T00:17:17.553Z,0.00
2022-09-26T00:18:17.540Z,0.00
2022-09-26T00:19:17.547Z,0.00
2022-09-26T00:20:17.517Z,0.00
2022-09-26T00:21:17.503Z,0.00
2022-09-26T00:22:17.500Z,0.00
2022-09-26T00:23:17.489Z,0.00
2022-09-26T00:24:17.496Z,0.00
2022-09-26T00:25:17.466Z,0.00
2022-09-26T00:26:17.473Z,0.00
2022-09-26T00:27:17.439Z,0.00
2022-09-26T00:28:17.443Z,0.00
2022-09-26T00:29:17.419Z,0.00
2022-09-26T00:30:17.429Z,0.00
2022-09-26T00:31:17.453Z,0.00
2022-09-26T00:32:17.413Z,0.00
2022-09-26T00:33:17.377Z,0.00
2022-09-26T00:34:17.370Z,0.00
2022-09-26T00:35:17.360Z,0.00
2022-09-26T00:36:17.347Z,0.00
2022-09-26T00:37:17.366Z,0.00
2022-09-26T00:38:17.327Z,0.00
2022-09-26T00:39:17.331Z,0.00
2022-09-26T00:40:17.395Z,0.00
2022-09-26T00:41:17.289Z,0.00
2022-09-26T00:42:17.288Z,0.00
2022-09-26T00:43:17.302Z,0.00
2022-09-26T00:44:17.277Z,0.00
2022-09-26T00:45:17.249Z,0.00
2022-09-26T00:46:17.293Z,0.00
2022-09-26T00:47:17.327Z,0.00
2022-09-26T00:48:17.238Z,0.00
2022-09-26T00:49:17.208Z,0.00
2022-09-26T00:50:17.199Z,0.00
2022-09-26T00:51:17.185Z,0.00
2022-09-26T00:52:17.176Z,0.00
2022-09-26T00:53:17.180Z,0.00
2022-09-26T00:54:17.154Z,0.00
2022-09-26T00:55:17.136Z,0.00
2022-09-26T00:56:17.129Z,0.00
2022-09-26T00:57:17.114Z,0.00
2022-09-26T00:58:17.130Z,0.00
2022-09-26T00:59:17.098Z,0.00
2022-09-26T01:00:17.086Z,0.00
2022-09-26T01:01:17.216Z,0.00
2022-09-26T01:02:17.194Z,0.00
2022-09-26T01:03:17.090Z,0.00
2022-09-26T01:04:17.046Z,0.00
2022-09-26T01:05:17.049Z,0.00
2022-09-26T01:06:17.028Z,0.00
2022-09-26T01:07:17.012Z,0.00
2022-09-26T01:08:17.001Z,0.00
2022-09-26T01:09:16.986Z,0.00
2022-09-26T01:10:16.997Z,0.00
2022-09-26T01:11:17.497Z,0.00
2022-09-26T01:12:16.959Z,0.00
2022-09-26T01:13:16.940Z,0.00
2022-09-26T01:14:16.949Z,0.00
2022-09-26T01:15:16.926Z,0.00
2022-09-26T01:16:17.043Z,0.00
2022-09-26T01:17:16.903Z,0.00
2022-09-26T01:18:16.887Z,0.00
2022-09-26T01:19:17.022Z,0.00
2022-09-26T01:20:16.868Z,0.00
2022-09-26T01:21:16.859Z,0.00
2022-09-26T01:22:16.849Z,0.00
2022-09-26T01:23:16.833Z,0.00
2022-09-26T01:24:16.846Z,0.00
2022-09-26T01:25:16.812Z,0.00
2022-09-26T01:26:16.803Z,0.00
2022-09-26T01:27:16.796Z,0.00
2022-09-26T01:28:16.782Z,0.00
2022-09-26T01:29:16.796Z,0.00
2022-09-26T01:30:16.768Z,0.00
2022-09-26T01:31:16.803Z,0.00
2022-09-26T01:32:16.737Z,0.00
2022-09-26T01:33:16.727Z,0.00
2022-09-26T01:34:16.736Z,0.00
2022-09-26T01:35:16.726Z,0.00
2022-09-26T01:36:16.715Z,0.00
2022-09-26T01:37:16.685Z,0.00
2022-09-26T01:38:16.671Z,0.00
2022-09-26T01:39:16.661Z,0.00
2022-09-26T01:40:16.773Z,0.00
2022-09-26T01:41:16.689Z,0.00
2022-09-26T01:42:16.660Z,0.00
2022-09-26T01:43:16.619Z,0.00
2022-09-26T01:44:16.602Z,0.00
2022-09-26T01:45:16.621Z,0.00
2022-09-26T01:46:16.638Z,0.00
2022-09-26T01:47:16.576Z,0.00
2022-09-26T01:48:16.562Z,0.00
2022-09-26T01:49:16.556Z,0.00
2022-09-26T01:50:16.564Z,0.00
2022-09-26T01:51:16.551Z,0.00
2022-09-26T01:52:16.521Z,0.00
2022-09-26T01:53:16.502Z,0.00
2022-09-26T01:54:16.500Z,0.00
2022-09-26T01:55:16.515Z,0.00
2022-09-26T01:56:16.474Z,0.00
2022-09-26T01:57:16.466Z,0.00
2022-09-26T01:58:16.461Z,0.00
2022-09-26T01:59:16.443Z,0.00
2022-09-26T02:00:17.542Z,0.00
2022-09-26T02:01:16.527Z,0.00
2022-09-26T02:02:16.470Z,0.00
2022-09-26T02:03:16.394Z,0.00
2022-09-26T02:04:16.393Z,0.00
2022-09-26T02:05:16.398Z,0.00
2022-09-26T02:06:16.393Z,0.00
2022-09-26T02:07:16.377Z,0.00
2022-09-26T02:08:16.375Z,0.00
2022-09-26T02:09:16.335Z,0.00
2022-09-26T02:10:16.502Z,0.00
2022-09-26T02:11:16.357Z,0.00
2022-09-26T02:12:16.302Z,0.00
2022-09-26T02:13:16.298Z,0.00
2022-09-26T02:14:16.288Z,0.00
2022-09-26T02:15:16.278Z,0.00
2022-09-26T02:16:16.336Z,0.00
2022-09-26T02:17:16.246Z,0.00
2022-09-26T02:18:16.237Z,0.00
2022-09-26T02:19:16.222Z,0.00
2022-09-26T02:20:16.212Z,0.00
2022-09-26T02:21:16.228Z,0.00
2022-09-26T02:22:16.191Z,0.00
2022-09-26T02:23:16.204Z,0.00
2022-09-26T02:24:16.173Z,0.00
2022-09-26T02:25:16.158Z,0.00
2022-09-26T02:26:16.173Z,0.00
2022-09-26T02:27:16.140Z,0.00
2022-09-26T02:28:16.128Z,0.00
2022-09-26T02:29:16.116Z,0.00
2022-09-26T02:30:16.108Z,0.00
2022-09-26T02:31:16.118Z,0.00
2022-09-26T02:32:16.232Z,0.00
2022-09-26T02:33:16.093Z,0.00
2022-09-26T02:34:16.069Z,0.00
2022-09-26T02:35:16.054Z,0.00
2022-09-26T02:36:16.038Z,0.00
2022-09-26T02:37:16.027Z,0.00
2022-09-26T02:38:16.036Z,0.00
2022-09-26T02:39:16.041Z,0.00
2022-09-26T02:40:16.120Z,0.00
2022-09-26T02:41:15.985Z,0.00
2022-09-26T02:42:15.976Z,0.00
2022-09-26T02:43:15.985Z,0.00
2022-09-26T02:44:15.957Z,0.00
2022-09-26T02:45:15.944Z,0.00
2022-09-26T02:46:15.999Z,0.00
2022-09-26T02:47:15.922Z,0.00
2022-09-26T02:48:15.935Z,0.00
2022-09-26T02:49:15.901Z,0.00
2022-09-26T02:50:15.958Z,0.00
2022-09-26T02:51:15.875Z,0.00
2022-09-26T02:52:15.870Z,0.00
2022-09-26T02:53:15.855Z,0.00
2022-09-26T02:54:15.849Z,0.00
2022-09-26T02:55:15.877Z,0.00
2022-09-26T02:56:15.825Z,0.00
2022-09-26T02:57:15.817Z,0.00
2022-09-26T02:58:15.800Z,0.00
2022-09-26T02:59:15.970Z,0.00
2022-09-26T03:00:15.784Z,0.00
2022-09-26T03:01:15.909Z,0.00
2022-09-26T03:02:15.905Z,0.00
2022-09-26T03:03:15.746Z,0.00
2022-09-26T03:04:15.826Z,0.00
2022-09-26T03:05:15.722Z,0.00
2022-09-26T03:06:15.715Z,0.00
2022-09-26T03:07:15.737Z,0.00
2022-09-26T03:08:15.721Z,0.00
2022-09-26T03:09:15.707Z,0.00
2022-09-26T03:10:15.671Z,0.00
2022-09-26T03:11:15.686Z,0.00
2022-09-26T03:12:15.650Z,0.00
2022-09-26T03:13:15.637Z,0.00
2022-09-26T03:14:15.632Z,0.00
2022-09-26T03:15:15.638Z,0.00
2022-09-26T03:16:15.649Z,0.00
2022-09-26T03:17:15.595Z,0.00
2022-09-26T03:18:15.587Z,0.00
2022-09-26T03:19:15.678Z,0.00
2022-09-26T03:20:15.591Z,0.00
2022-09-26T03:21:15.551Z,0.00
2022-09-26T03:22:15.540Z,0.00
2022-09-26T03:23:15.528Z,0.00
2022-09-26T03:24:15.545Z,0.00
2022-09-26T03:25:15.507Z,0.00
2022-09-26T03:26:15.499Z,0.00
2022-09-26T03:27:15.510Z,0.00
2022-09-26T03:28:15.480Z,0.00
2022-09-26T03:29:15.535Z,0.00
2022-09-26T03:30:15.450Z,0.00
2022-09-26T03:31:15.536Z,0.00
2022-09-26T03:32:15.515Z,0.00
2022-09-26T03:33:15.422Z,0.00
2022-09-26T03:34:15.437Z,0.00
2022-09-26T03:35:15.395Z,0.00
2022-09-26T03:36:15.391Z,0.00
2022-09-26T03:37:15.376Z,0.00
2022-09-26T03:38:15.370Z,0.00
2022-09-26T03:39:15.566Z,0.00
2022-09-26T03:40:15.429Z,0.00
2022-09-26T03:41:15.330Z,0.00
2022-09-26T03:42:15.318Z,0.00
2022-09-26T03:43:15.330Z,0.00
2022-09-26T03:44:15.299Z,0.00
2022-09-26T03:45:15.322Z,0.00
2022-09-26T03:46:15.343Z,0.00
2022-09-26T03:47:15.279Z,0.00
2022-09-26T03:48:15.258Z,0.00
2022-09-26T03:49:15.399Z,0.00
2022-09-26T03:50:15.256Z,0.00
2022-09-26T03:51:15.228Z,0.00
2022-09-26T03:52:15.212Z,0.00
2022-09-26T03:53:15.223Z,0.00
2022-09-26T03:54:15.191Z,0.00
2022-09-26T03:55:15.187Z,0.00
2022-09-26T03:56:15.170Z,0.00
2022-09-26T03:57:15.160Z,0.00
2022-09-26T03:58:15.215Z,0.00
2022-09-26T03:59:15.257Z,0.00
2022-09-26T04:00:15.127Z,0.00
2022-09-26T04:01:15.221Z,0.00
2022-09-26T04:02:15.138Z,0.00
2022-09-26T04:03:15.098Z,0.00
2022-09-26T04:04:15.115Z,0.00
2022-09-26T04:05:15.084Z,0.00
2022-09-26T04:06:15.061Z,0.00
2022-09-26T04:07:15.072Z,0.00
2022-09-26T04:08:15.039Z,0.00
2022-09-26T04:09:17.265Z,0.00
2022-09-26T04:10:15.019Z,0.00
2022-09-26T04:11:15.013Z,0.00
2022-09-26T04:12:14.998Z,0.00
2022-09-26T04:13:39.763Z,0.00
2022-09-26T04:14:16.002Z,0.00
2022-09-26T04:15:14.983Z,0.00
2022-09-26T04:16:15.021Z,0.00
2022-09-26T04:17:14.945Z,0.00
2022-09-26T04:18:14.951Z,0.00
2022-09-26T04:19:15.115Z,0.00
2022-09-26T04:20:14.905Z,0.00
2022-09-26T04:21:14.899Z,0.00
2022-09-26T04:22:14.888Z,0.00
2022-09-26T04:23:14.895Z,0.00
2022-09-26T04:24:14.887Z,0.00
2022-09-26T04:25:14.857Z,0.00
2022-09-26T04:26:18.680Z,0.00
2022-09-26T04:27:15.831Z,0.00
2022-09-26T04:28:14.822Z,0.00
2022-09-26T04:29:14.883Z,0.00
2022-09-26T04:30:14.799Z,0.00
2022-09-26T04:31:14.946Z,0.00
2022-09-26T04:32:14.778Z,0.00
2022-09-26T04:33:14.767Z,0.00
2022-09-26T04:34:14.784Z,0.00
2022-09-26T04:35:14.746Z,0.00
2022-09-26T04:36:14.732Z,0.00
2022-09-26T04:37:14.753Z,0.00
2022-09-26T04:38:14.712Z,0.00
2022-09-26T04:39:14.869Z,0.00
2022-09-26T04:40:14.778Z,0.00
2022-09-26T04:41:14.707Z,0.00
2022-09-26T04:42:14.679Z,0.00
2022-09-26T04:43:14.667Z,0.00
2022-09-26T04:44:14.651Z,0.00
2022-09-26T04:45:14.636Z,0.00
2022-09-26T04:46:18.559Z,0.00
2022-09-26T04:47:15.637Z,0.00
2022-09-26T04:48:14.610Z,0.00
2022-09-26T04:49:14.746Z,0.00
2022-09-26T04:50:14.579Z,0.00
2022-09-26T04:51:14.608Z,0.00
2022-09-26T04:52:14.558Z,0.00
2022-09-26T04:53:14.573Z,0.00
2022-09-26T04:54:14.537Z,0.00
2022-09-26T04:55:14.529Z,0.00
2022-09-26T04:56:14.594Z,0.00
2022-09-26T04:57:19.329Z,0.00
2022-09-26T04:58:15.494Z,0.00
2022-09-26T04:59:14.647Z,0.00
2022-09-26T05:00:14.473Z,0.00
2022-09-26T05:01:14.543Z,0.00
2022-09-26T05:02:14.603Z,0.00
2022-09-26T05:03:14.485Z,0.00
2022-09-26T05:04:14.431Z,0.00
2022-09-26T05:05:14.451Z,0.00
2022-09-26T05:06:14.416Z,0.00
2022-09-26T05:07:14.428Z,0.00
2022-09-26T05:08:14.393Z,0.00
2022-09-26T05:09:14.479Z,0.00
2022-09-26T05:10:14.363Z,0.00
2022-09-26T05:11:14.364Z,0.00
2022-09-26T05:12:14.372Z,0.00
2022-09-26T05:13:14.336Z,0.00
2022-09-26T05:14:14.320Z,0.00
2022-09-26T05:15:14.312Z,0.00
2022-09-26T05:16:14.558Z,0.00
2022-09-26T05:17:14.296Z,0.00
2022-09-26T05:18:14.300Z,0.00
2022-09-26T05:19:14.572Z,0.00
2022-09-26T05:20:14.270Z,0.00
2022-09-26T05:21:14.249Z,0.00
2022-09-26T05:22:14.236Z,0.00
2022-09-26T05:23:14.249Z,0.00
2022-09-26T05:24:14.213Z,0.00
2022-09-26T05:25:14.218Z,0.00
2022-09-26T05:26:14.190Z,0.00
2022-09-26T05:27:14.187Z,0.00
2022-09-26T05:28:14.189Z,0.00
2022-09-26T05:29:14.179Z,0.00
2022-09-26T05:30:14.149Z,0.00
2022-09-26T05:31:14.208Z,0.00
2022-09-26T05:32:14.124Z,0.00
2022-09-26T05:33:14.147Z,0.00
2022-09-26T05:34:19.272Z,0.00
2022-09-26T05:35:15.118Z,0.00
2022-09-26T05:36:14.089Z,5.62
2022-09-26T05:37:14.073Z,5.62
2022-09-26T05:38:14.067Z,5.62
2022-09-26T05:39:14.178Z,5.62
2022-09-26T05:40:14.086Z,5.62
2022-09-26T05:41:14.082Z,5.62
2022-09-26T05:42:14.018Z,5.62
2022-09-26T05:43:14.015Z,5.62
2022-09-26T05:44:14.015Z,5.62
2022-09-26T05:45:13.985Z,5.62
2022-09-26T05:46:14.068Z,5.62
2022-09-26T05:47:14.072Z,5.62
2022-09-26T05:48:13.954Z,5.62
2022-09-26T05:49:14.053Z,5.62
2022-09-26T05:50:13.950Z,5.62
2022-09-26T05:51:13.941Z,5.62
2022-09-26T05:52:13.910Z,5.62
2022-09-26T05:53:13.902Z,5.62
2022-09-26T05:54:13.891Z,5.62
2022-09-26T05:55:13.901Z,5.62
2022-09-26T05:56:18.520Z,5.62
2022-09-26T05:57:14.857Z,5.62
2022-09-26T05:58:13.855Z,5.62
2022-09-26T05:59:14.138Z,5.62
2022-09-26T06:00:13.854Z,5.62
2022-09-26T06:01:13.851Z,5.62
2022-09-26T06:02:17.232Z,5.62
2022-09-26T06:03:14.793Z,5.62
2022-09-26T06:04:13.786Z,5.62
2022-09-26T06:05:13.795Z,5.62
2022-09-26T06:06:13.762Z,5.62
2022-09-26T06:07:13.769Z,5.62
2022-09-26T06:08:13.736Z,5.62
2022-09-26T06:09:13.736Z,5.62
2022-09-26T06:10:13.721Z,5.62
2022-09-26T06:11:13.753Z,5.62
2022-09-26T06:12:13.692Z,11.25
2022-09-26T06:13:13.685Z,11.25
2022-09-26T06:14:13.678Z,11.25
2022-09-26T06:15:13.663Z,11.25
2022-09-26T06:16:13.726Z,11.25
2022-09-26T06:17:13.639Z,11.25
2022-09-26T06:18:13.629Z,11.25
2022-09-26T06:19:13.769Z,11.25
2022-09-26T06:20:13.606Z,11.25
2022-09-26T06:21:13.618Z,11.25
2022-09-26T06:22:13.597Z,11.25
2022-09-26T06:23:13.606Z,11.25
2022-09-26T06:24:13.576Z,11.25
2022-09-26T06:25:13.558Z,11.25
2022-09-26T06:26:13.567Z,11.25
2022-09-26T06:27:13.540Z,11.25
2022-09-26T06:28:13.526Z,11.25
2022-09-26T06:29:13.527Z,11.25
2022-09-26T06:30:13.499Z,11.25
2022-09-26T06:31:13.560Z,11.25
2022-09-26T06:32:13.474Z,11.25
2022-09-26T06:33:13.466Z,11.25
2022-09-26T06:34:13.456Z,11.25
2022-09-26T06:35:13.451Z,11.25
2022-09-26T06:36:13.463Z,11.25
2022-09-26T06:37:13.427Z,11.25
2022-09-26T06:38:13.416Z,11.25
2022-09-26T06:39:13.519Z,11.25
2022-09-26T06:40:13.465Z,11.25
2022-09-26T06:41:13.403Z,11.25
2022-09-26T06:42:13.364Z,16.88
2022-09-26T06:43:13.358Z,16.88
2022-09-26T06:44:13.349Z,16.88
2022-09-26T06:45:13.342Z,16.88
2022-09-26T06:46:13.359Z,16.88
2022-09-26T06:47:13.457Z,16.88
2022-09-26T06:48:13.306Z,16.88
2022-09-26T06:49:13.318Z,16.88
2022-09-26T06:50:13.296Z,16.88
2022-09-26T06:51:13.271Z,16.88
2022-09-26T06:52:13.263Z,16.88
2022-09-26T06:53:13.260Z,16.88
2022-09-26T06:54:13.238Z,16.88
2022-09-26T06:55:13.270Z,16.88
2022-09-26T06:56:13.220Z,16.88
2022-09-26T06:57:15.171Z,16.88
2022-09-26T06:58:13.197Z,16.88
2022-09-26T06:59:13.184Z,16.88
2022-09-26T07:00:13.189Z,16.88
2022-09-26T07:01:13.332Z,16.88
2022-09-26T07:02:13.239Z,16.88
2022-09-26T07:03:13.172Z,16.88
2022-09-26T07:04:13.130Z,16.88
2022-09-26T07:05:13.145Z,16.88
2022-09-26T07:06:13.110Z,16.88
2022-09-26T07:07:13.101Z,16.88
2022-09-26T07:08:13.109Z,16.88
2022-09-26T07:09:13.167Z,16.88
2022-09-26T07:10:13.066Z,16.88
2022-09-26T07:11:35.266Z,16.88
2022-09-26T07:12:15.502Z,16.88
2022-09-26T07:13:13.030Z,22.50
2022-09-26T07:14:13.044Z,22.50
2022-09-26T07:15:13.044Z,22.50
2022-09-26T07:16:13.084Z,22.50
2022-09-26T07:17:12.996Z,16.88
2022-09-26T07:18:12.983Z,16.88
2022-09-26T07:19:13.177Z,22.50
2022-09-26T07:20:12.964Z,22.50
2022-09-26T07:21:12.948Z,16.88
2022-09-26T07:22:12.943Z,16.88
2022-09-26T07:23:12.929Z,16.88
2022-09-26T07:24:12.937Z,16.88
2022-09-26T07:25:12.909Z,16.88
2022-09-26T07:26:12.963Z,16.88
2022-09-26T07:27:12.929Z,22.50
2022-09-26T07:28:12.872Z,22.50
2022-09-26T07:29:12.886Z,22.50
2022-09-26T07:30:12.852Z,22.50
2022-09-26T07:31:12.934Z,22.50
2022-09-26T07:32:12.859Z,22.50
2022-09-26T07:33:12.820Z,22.50
2022-09-26T07:34:17.816Z,22.50
2022-09-26T07:35:13.799Z,22.50
2022-09-26T07:36:12.829Z,22.50
2022-09-26T07:37:12.810Z,22.50
2022-09-26T07:38:12.776Z,22.50
2022-09-26T07:39:12.829Z,22.50
2022-09-26T07:40:12.826Z,22.50
2022-09-26T07:41:12.732Z,22.50
2022-09-26T07:42:12.748Z,22.50
2022-09-26T07:43:20.046Z,22.50
2022-09-26T07:45:28.802Z,28.12
2022-09-26T07:46:13.757Z,22.50
2022-09-26T07:47:12.669Z,33.75
2022-09-26T07:48:12.665Z,45.00
2022-09-26T07:49:12.650Z,28.12
2022-09-26T07:50:12.637Z,28.12
2022-09-26T07:51:12.661Z,22.50
2022-09-26T07:52:12.612Z,28.12
2022-09-26T07:53:12.604Z,22.50
2022-09-26T07:54:12.783Z,16.88
2022-09-26T07:55:12.587Z,28.12
2022-09-26T07:56:12.567Z,22.50
2022-09-26T07:57:12.579Z,22.50
2022-09-26T07:58:12.550Z,28.12
2022-09-26T07:59:12.567Z,33.75
2022-09-26T08:00:12.529Z,39.38
2022-09-26T08:01:12.584Z,45.00
2022-09-26T08:02:12.692Z,39.38
2022-09-26T08:03:12.572Z,39.38
2022-09-26T08:04:12.510Z,39.38
2022-09-26T08:05:12.474Z,39.38
2022-09-26T08:06:12.460Z,33.75
2022-09-26T08:07:12.469Z,22.50
2022-09-26T08:08:12.442Z,16.88
2022-09-26T08:09:12.517Z,28.12
2022-09-26T08:10:12.416Z,39.38
2022-09-26T08:11:12.409Z,39.38
2022-09-26T08:12:12.422Z,16.88
2022-09-26T08:13:12.384Z,16.88
2022-09-26T08:14:12.477Z,16.88
2022-09-26T08:15:12.382Z,16.88
2022-09-26T08:16:12.392Z,16.88
2022-09-26T08:17:14.431Z,16.88
2022-09-26T08:18:12.333Z,16.88
2022-09-26T08:19:12.346Z,22.50
2022-09-26T08:20:12.313Z,22.50
2022-09-26T08:21:12.305Z,16.88
2022-09-26T08:22:12.313Z,16.88
2022-09-26T08:23:12.273Z,16.88
2022-09-26T08:24:12.344Z,16.88
2022-09-26T08:25:12.252Z,16.88
2022-09-26T08:26:12.244Z,16.88
2022-09-26T08:27:12.258Z,16.88
2022-09-26T08:28:12.221Z,22.50
2022-09-26T08:29:12.207Z,16.88
2022-09-26T08:30:12.197Z,16.88
2022-09-26T08:31:12.259Z,16.88
2022-09-26T08:32:12.185Z,16.88
2022-09-26T08:33:12.193Z,16.88
2022-09-26T08:34:12.201Z,16.88
2022-09-26T08:35:12.160Z,16.88
2022-09-26T08:36:12.154Z,16.88
2022-09-26T08:37:12.123Z,11.25
2022-09-26T08:38:12.132Z,16.88
2022-09-26T08:39:12.207Z,16.88
2022-09-26T08:40:12.171Z,16.88
2022-09-26T08:41:12.085Z,16.88
2022-09-26T08:42:12.065Z,16.88
2022-09-26T08:43:12.081Z,16.88
2022-09-26T08:44:12.113Z,16.88
2022-09-26T08:45:12.034Z,16.88
2022-09-26T08:46:12.147Z,16.88
2022-09-26T08:47:12.049Z,16.88
2022-09-26T08:48:12.002Z,22.50
2022-09-26T08:49:11.995Z,22.50
2022-09-26T08:50:11.982Z,16.88
2022-09-26T08:51:11.966Z,16.88
2022-09-26T08:52:11.984Z,22.50
2022-09-26T08:53:11.946Z,16.88
2022-09-26T08:54:11.999Z,22.50
2022-09-26T08:55:11.930Z,33.75
2022-09-26T08:56:11.914Z,39.38
2022-09-26T08:57:11.925Z,45.00
2022-09-26T08:58:11.890Z,45.00
2022-09-26T08:59:11.876Z,28.12
2022-09-26T09:00:11.894Z,28.12
2022-09-26T09:01:11.916Z,28.12
2022-09-26T09:02:12.019Z,28.12
2022-09-26T09:03:11.989Z,22.50
2022-09-26T09:04:11.924Z,22.50
2022-09-26T09:05:11.814Z,28.12
2022-09-26T09:06:11.814Z,33.75
2022-09-26T09:07:11.805Z,39.38
2022-09-26T09:08:11.805Z,28.12
2022-09-26T09:09:11.779Z,33.75
2022-09-26T09:10:11.763Z,39.38
2022-09-26T09:11:11.750Z,33.75
2022-09-26T09:12:11.740Z,33.75
2022-09-26T09:13:11.747Z,28.12
2022-09-26T09:14:11.798Z,22.50
2022-09-26T09:15:25.396Z,22.50
2022-09-26T09:16:12.737Z,22.50
2022-09-26T09:17:11.688Z,33.75
2022-09-26T09:18:13.813Z,45.00
2022-09-26T09:19:11.689Z,50.62
2022-09-26T09:20:11.652Z,33.75
2022-09-26T09:21:11.642Z,28.12
2022-09-26T09:22:11.637Z,33.75
2022-09-26T09:23:11.638Z,45.00
2022-09-26T09:24:11.627Z,67.50
2022-09-26T09:25:11.601Z,73.12
2022-09-26T09:28:12.592Z,22.50
2022-09-26T09:29:11.599Z,22.50
2022-09-26T09:30:18.072Z,22.50
2022-09-26T09:31:12.570Z,22.50
2022-09-26T09:32:11.540Z,22.50
2022-09-26T09:33:11.540Z,22.50
2022-09-26T09:34:11.587Z,22.50
2022-09-26T09:35:11.519Z,22.50
2022-09-26T09:36:11.507Z,22.50
2022-09-26T09:37:11.472Z,22.50
2022-09-26T09:38:11.459Z,22.50
2022-09-26T09:39:11.458Z,22.50
2022-09-26T09:40:11.526Z,22.50
2022-09-26T09:41:11.461Z,22.50
2022-09-26T09:42:11.420Z,28.12
2022-09-26T09:43:11.410Z,39.38
2022-09-26T09:44:11.528Z,50.62
2022-09-26T09:45:11.388Z,56.25
2022-09-26T09:46:11.453Z,50.62
2022-09-26T09:47:11.389Z,22.50
2022-09-26T09:48:11.356Z,22.50
2022-09-26T09:49:11.341Z,16.88
2022-09-26T09:50:11.352Z,22.50
2022-09-26T09:51:11.351Z,22.50
2022-09-26T09:52:11.312Z,22.50
2022-09-26T09:53:11.296Z,22.50
2022-09-26T09:54:11.289Z,28.12
2022-09-26T09:55:11.300Z,22.50
2022-09-26T09:56:11.292Z,39.38
2022-09-26T09:57:11.261Z,33.75
2022-09-26T09:58:11.256Z,39.38
2022-09-26T09:59:11.240Z,45.00
2022-09-26T10:00:15.957Z,56.25
2022-09-26T10:01:11.217Z,84.38
2022-09-26T10:02:11.213Z,67.50
2022-09-26T10:03:11.338Z,67.50
2022-09-26T10:04:11.182Z,67.50
2022-09-26T10:05:11.174Z,73.12
2022-09-26T10:06:46.165Z,45.00
2022-09-26T10:07:12.165Z,50.62
2022-09-26T10:08:11.158Z,73.12
2022-09-26T10:09:35.928Z,73.12
2022-09-26T10:10:12.119Z,56.25
2022-09-26T10:11:11.138Z,39.38
2022-09-26T10:12:11.116Z,33.75
2022-09-26T10:13:11.100Z,33.75
2022-09-26T10:14:11.070Z,28.12
2022-09-26T10:15:11.059Z,28.12
2022-09-26T10:16:11.239Z,33.75
2022-09-26T10:17:11.062Z,61.88
2022-09-26T10:18:27.034Z,73.12
2022-09-26T10:19:12.017Z,61.88
2022-09-26T10:20:11.021Z,78.75
2022-09-26T10:21:11.027Z,90.00
2022-09-26T10:22:11.017Z,84.38
2022-09-26T10:23:11.013Z,67.50
2022-09-26T10:24:10.962Z,56.25
2022-09-26T10:25:10.965Z,50.62
2022-09-26T10:26:10.948Z,45.00
2022-09-26T10:27:10.930Z,33.75
2022-09-26T10:28:10.942Z,28.12
2022-09-26T10:29:10.907Z,22.50
2022-09-26T10:30:10.922Z,16.88
2022-09-26T10:31:10.943Z,16.88
2022-09-26T10:32:10.889Z,16.88
2022-09-26T10:33:10.862Z,22.50
2022-09-26T10:34:10.849Z,22.50
2022-09-26T10:35:10.866Z,16.88
2022-09-26T10:36:10.826Z,11.25
2022-09-26T10:37:10.824Z,11.25
2022-09-26T10:38:10.822Z,16.88
2022-09-26T10:39:10.825Z,33.75
2022-09-26T10:40:10.973Z,61.88
2022-09-26T10:41:10.781Z,84.38
2022-09-26T10:42:10.787Z,61.88
2022-09-26T10:43:10.750Z,50.62
2022-09-26T10:44:10.755Z,50.62
2022-09-26T10:45:10.728Z,39.38
2022-09-26T10:46:10.781Z,39.38
2022-09-26T10:47:10.732Z,33.75
2022-09-26T10:48:10.698Z,39.38
2022-09-26T10:49:10.686Z,39.38
2022-09-26T10:50:10.679Z,33.75
2022-09-26T10:51:10.688Z,33.75
2022-09-26T10:52:14.706Z,28.12
2022-09-26T10:53:11.648Z,28.12
2022-09-26T10:54:10.635Z,22.50
2022-09-26T10:55:10.689Z,22.50
2022-09-26T10:56:10.612Z,22.50
2022-09-26T10:57:10.641Z,22.50
2022-09-26T10:58:13.847Z,16.88
2022-09-26T10:59:10.578Z,16.88
2022-09-26T11:00:10.560Z,16.88
2022-09-26T11:01:10.557Z,16.88
2022-09-26T11:02:10.658Z,16.88
2022-09-26T11:03:10.582Z,16.88
2022-09-26T11:04:10.697Z,16.88
2022-09-26T11:05:10.510Z,16.88
2022-09-26T11:06:10.498Z,16.88
2022-09-26T11:07:10.492Z,16.88
2022-09-26T11:08:10.488Z,22.50
2022-09-26T11:09:10.483Z,22.50
2022-09-26T11:10:10.454Z,22.50
2022-09-26T11:11:10.467Z,22.50
2022-09-26T11:12:10.439Z,28.12
2022-09-26T11:13:10.430Z,28.12
2022-09-26T11:14:10.603Z,33.75
2022-09-26T11:15:10.401Z,33.75
2022-09-26T11:16:10.490Z,33.75
2022-09-26T11:17:10.383Z,16.88
2022-09-26T11:18:10.368Z,11.25
2022-09-26T11:19:10.397Z,11.25
2022-09-26T11:20:10.352Z,11.25
2022-09-26T11:21:27.547Z,16.88
2022-09-26T11:22:11.326Z,22.50
2022-09-26T11:23:10.336Z,22.50
2022-09-26T11:24:31.331Z,16.88
2022-09-26T11:25:31.296Z,22.50
2022-09-26T11:26:31.315Z,28.12
2022-09-26T11:27:10.275Z,33.75
2022-09-26T11:28:31.264Z,45.00
2022-09-26T11:30:19.117Z,67.50
2022-09-26T11:31:40.194Z,84.38
2022-09-26T11:33:48.958Z,78.75
2022-09-26T11:34:48.972Z,67.50
2022-09-26T11:35:27.934Z,61.88
2022-09-26T11:36:27.916Z,67.50
2022-09-26T11:37:27.912Z,73.12
2022-09-26T11:38:27.901Z,73.12
2022-09-26T11:39:27.891Z,73.12
2022-09-26T11:40:28.003Z,78.75
2022-09-26T11:41:27.868Z,78.75
2022-09-26T11:42:27.879Z,84.38
2022-09-26T11:43:27.869Z,84.38
2022-09-26T11:44:27.839Z,84.38
2022-09-26T11:45:27.852Z,90.00
2022-09-26T11:46:27.839Z,78.75
2022-09-26T11:47:27.806Z,67.50
2022-09-26T11:48:27.797Z,67.50
2022-09-26T11:49:27.779Z,50.62
2022-09-26T11:50:27.800Z,56.25
2022-09-26T11:51:27.764Z,50.62
2022-09-26T11:52:27.753Z,56.25
2022-09-26T11:53:27.746Z,56.25
2022-09-26T11:54:27.726Z,61.88
2022-09-26T11:55:27.742Z,61.88
2022-09-26T11:56:27.727Z,56.25
2022-09-26T11:57:27.698Z,61.88
2022-09-26T11:58:27.706Z,67.50
2022-09-26T11:59:27.673Z,73.12
2022-09-26T12:00:27.784Z,84.38
2022-09-26T12:01:27.722Z,84.38
2022-09-26T12:02:27.760Z,84.38
2022-09-26T12:03:27.811Z,78.75
2022-09-26T12:04:27.619Z,67.50
2022-09-26T12:05:27.810Z,67.50
2022-09-26T12:06:27.622Z,67.50
2022-09-26T12:07:27.592Z,78.75
2022-09-26T12:08:27.581Z,78.75
2022-09-26T12:09:27.574Z,95.62
2022-09-26T12:10:27.554Z,95.62
2022-09-26T12:11:27.542Z,78.75
2022-09-26T12:12:27.562Z,67.50
2022-09-26T12:13:27.527Z,61.88
2022-09-26T12:14:27.556Z,61.88
2022-09-26T12:15:27.502Z,61.88
2022-09-26T12:16:27.546Z,67.50
2022-09-26T12:17:27.505Z,56.25
2022-09-26T12:18:27.465Z,56.25
2022-09-26T12:19:27.456Z,56.25
2022-09-26T12:20:27.469Z,56.25
2022-09-26T12:21:27.435Z,56.25
2022-09-26T12:22:27.425Z,56.25
2022-09-26T12:23:27.415Z,56.25
2022-09-26T12:24:27.403Z,61.88
2022-09-26T12:25:27.409Z,56.25
2022-09-26T12:26:27.384Z,61.88
2022-09-26T12:27:27.397Z,61.88
2022-09-26T12:28:27.359Z,61.88
2022-09-26T12:29:27.358Z,73.12
2022-09-26T12:30:27.400Z,67.50
2022-09-26T12:31:27.417Z,61.88
2022-09-26T12:32:27.403Z,45.00
2022-09-26T12:33:27.312Z,50.62
2022-09-26T12:34:27.303Z,45.00
2022-09-26T12:35:27.291Z,50.62
2022-09-26T12:36:27.276Z,45.00
2022-09-26T12:37:27.280Z,45.00
2022-09-26T12:38:27.277Z,39.38
2022-09-26T12:39:27.247Z,39.38
2022-09-26T12:40:27.413Z,39.38
2022-09-26T12:41:27.222Z,33.75
2022-09-26T12:42:27.219Z,33.75
2022-09-26T12:43:27.232Z,33.75
2022-09-26T12:44:27.191Z,28.12
2022-09-26T12:45:27.191Z,28.12
2022-09-26T12:46:27.242Z,28.12
2022-09-26T12:47:27.156Z,22.50
2022-09-26T12:48:27.171Z,22.50
2022-09-26T12:49:27.139Z,22.50
2022-09-26T12:50:27.158Z,22.50
2022-09-26T12:51:27.113Z,16.88
2022-09-26T12:52:27.686Z,16.88
2022-09-26T12:53:27.093Z,16.88
2022-09-26T12:54:27.081Z,16.88
2022-09-26T12:55:27.088Z,16.88
2022-09-26T12:56:27.063Z,16.88
2022-09-26T12:57:27.057Z,16.88
2022-09-26T12:58:27.060Z,16.88
2022-09-26T12:59:27.057Z,16.88
2022-09-26T13:00:27.031Z,16.88
2022-09-26T13:01:27.076Z,16.88
2022-09-26T13:02:27.055Z,16.88
2022-09-26T13:03:26.990Z,16.88
2022-09-26T13:04:27.001Z,16.88
2022-09-26T13:05:26.971Z,22.50
2022-09-26T13:06:26.953Z,22.50
2022-09-26T13:07:26.945Z,33.75
2022-09-26T13:08:26.934Z,33.75
2022-09-26T13:09:26.947Z,39.38